sensor_id;sensor_type;location;lat;lon;timestamp;temperature;humidity
3275;DHT22;1649;53.672;10.064;2022-11-14T00:01:56;8.50;99.90
3275;DHT22;1649;53.672;10.064;2022-11-14T00:04:21;8.40;99.90
3275;DHT22;1649;53.672;10.064;2022-11-14T00:06:47;8.50;99.90
3275;DHT22;1649;53.672;10.064;2022-11-14T00:09:13;8.40;99.90
3275;DHT22;1649;53.672;10.064;2022-11-14T00:11:38;8.40;99.90
3275;DHT22;1649;53.672;10.064;2022-11-14T00:14:04;8.40;99.90
3275;DHT22;1649;53.672;10.064;2022-11-14T00:16:29;8.40;99.90
3275;DHT22;1649;53.672;10.064;2022-11-14T00:18:55;8.40;99.90
3275;DHT22;1649;53.672;10.064;2022-11-14T00:21:20;8.30;99.90
3275;DHT22;1649;53.672;10.064;2022-11-14T00:23:46;8.30;99.90
3275;DHT22;1649;53.672;10.064;2022-11-14T00:26:11;8.30;99.90
3275;DHT22;1649;53.672;10.064;2022-11-14T00:28:37;8.20;99.90
3275;DHT22;1649;53.672;10.064;2022-11-14T00:31:02;8.20;99.90
3275;DHT22;1649;53.672;10.064;2022-11-14T00:33:28;8.10;99.90
3275;DHT22;1649;53.672;10.064;2022-11-14T00:35:54;8.10;99.90
3275;DHT22;1649;53.672;10.064;2022-11-14T00:38:20;8.10;99.90
3275;DHT22;1649;53.672;10.064;2022-11-14T00:40:46;8.10;99.90
3275;DHT22;1649;53.672;10.064;2022-11-14T00:43:12;8.00;99.90
3275;DHT22;1649;53.672;10.064;2022-11-14T00:45:37;8.00;99.90
3275;DHT22;1649;53.672;10.064;2022-11-14T00:48:03;7.90;99.90
3275;DHT22;1649;53.672;10.064;2022-11-14T00:50:29;7.90;99.90
3275;DHT22;1649;53.672;10.064;2022-11-14T00:52:54;7.90;99.90
3275;DHT22;1649;53.672;10.064;2022-11-14T00:55:20;7.90;99.90
3275;DHT22;1649;53.672;10.064;2022-11-14T00:57:45;7.90;99.90
3275;DHT22;1649;53.672;10.064;2022-11-14T01:00:12;7.90;99.90
3275;DHT22;1649;53.672;10.064;2022-11-14T01:02:37;7.80;99.90
3275;DHT22;1649;53.672;10.064;2022-11-14T01:05:03;7.80;99.90
3275;DHT22;1649;53.672;10.064;2022-11-14T01:07:29;7.70;99.90
3275;DHT22;1649;53.672;10.064;2022-11-14T01:09:55;7.70;99.90
3275;DHT22;1649;53.672;10.064;2022-11-14T01:12:20;7.70;99.90
3275;DHT22;1649;53.672;10.064;2022-11-14T01:14:46;7.70;99.90
3275;DHT22;1649;53.672;10.064;2022-11-14T01:17:11;7.70;99.90
3275;DHT22;1649;53.672;10.064;2022-11-14T01:19:37;7.70;99.90
3275;DHT22;1649;53.672;10.064;2022-11-14T01:22:03;7.70;99.90
3275;DHT22;1649;53.672;10.064;2022-11-14T01:24:30;7.70;99.90
3275;DHT22;1649;53.672;10.064;2022-11-14T01:26:55;7.70;99.90
3275;DHT22;1649;53.672;10.064;2022-11-14T01:29:21;7.60;99.90
3275;DHT22;1649;53.672;10.064;2022-11-14T01:31:46;7.60;99.90
3275;DHT22;1649;53.672;10.064;2022-11-14T01:34:12;7.60;99.90
3275;DHT22;1649;53.672;10.064;2022-11-14T01:36:38;7.60;99.90
3275;DHT22;1649;53.672;10.064;2022-11-14T01:39:03;7.50;99.90
3275;DHT22;1649;53.672;10.064;2022-11-14T01:41:29;7.60;99.90
3275;DHT22;1649;53.672;10.064;2022-11-14T01:43:54;7.60;99.90
3275;DHT22;1649;53.672;10.064;2022-11-14T01:49:04;7.60;99.90
3275;DHT22;1649;53.672;10.064;2022-11-14T01:51:33;7.60;99.90
3275;DHT22;1649;53.672;10.064;2022-11-14T01:54:07;7.60;99.90
3275;DHT22;1649;53.672;10.064;2022-11-14T01:56:42;7.60;99.90
3275;DHT22;1649;53.672;10.064;2022-11-14T01:59:25;7.60;99.90
3275;DHT22;1649;53.672;10.064;2022-11-14T02:01:52;7.60;99.90
3275;DHT22;1649;53.672;10.064;2022-11-14T02:04:24;7.60;99.90
3275;DHT22;1649;53.672;10.064;2022-11-14T02:06:56;7.60;99.90
3275;DHT22;1649;53.672;10.064;2022-11-14T02:09:22;7.50;99.90
3275;DHT22;1649;53.672;10.064;2022-11-14T02:11:48;7.50;99.90
3275;DHT22;1649;53.672;10.064;2022-11-14T02:14:14;7.50;99.90
3275;DHT22;1649;53.672;10.064;2022-11-14T02:16:41;7.50;99.90
3275;DHT22;1649;53.672;10.064;2022-11-14T02:19:08;7.50;99.90
3275;DHT22;1649;53.672;10.064;2022-11-14T02:21:33;7.50;99.90
3275;DHT22;1649;53.672;10.064;2022-11-14T02:23:59;7.50;99.90
3275;DHT22;1649;53.672;10.064;2022-11-14T02:26:24;7.50;99.90
3275;DHT22;1649;53.672;10.064;2022-11-14T02:28:50;7.50;99.90
3275;DHT22;1649;53.672;10.064;2022-11-14T02:31:16;7.50;99.90
3275;DHT22;1649;53.672;10.064;2022-11-14T02:33:42;7.50;99.90
3275;DHT22;1649;53.672;10.064;2022-11-14T02:36:08;7.50;99.90
3275;DHT22;1649;53.672;10.064;2022-11-14T02:38:34;7.50;99.90
3275;DHT22;1649;53.672;10.064;2022-11-14T02:41:00;7.40;99.90
3275;DHT22;1649;53.672;10.064;2022-11-14T02:43:26;7.40;99.90
3275;DHT22;1649;53.672;10.064;2022-11-14T02:45:52;7.40;99.90
3275;DHT22;1649;53.672;10.064;2022-11-14T02:48:17;7.50;99.90
3275;DHT22;1649;53.672;10.064;2022-11-14T02:50:43;7.50;99.90
3275;DHT22;1649;53.672;10.064;2022-11-14T02:53:09;7.50;99.90
3275;DHT22;1649;53.672;10.064;2022-11-14T02:55:34;7.40;99.90
3275;DHT22;1649;53.672;10.064;2022-11-14T02:58:00;7.40;99.90
3275;DHT22;1649;53.672;10.064;2022-11-14T03:00:25;7.50;99.90
3275;DHT22;1649;53.672;10.064;2022-11-14T03:02:54;7.40;99.90
3275;DHT22;1649;53.672;10.064;2022-11-14T03:05:20;7.40;99.90
3275;DHT22;1649;53.672;10.064;2022-11-14T03:07:45;7.40;99.90
3275;DHT22;1649;53.672;10.064;2022-11-14T03:10:11;7.40;99.90
3275;DHT22;1649;53.672;10.064;2022-11-14T03:12:38;7.40;99.90
3275;DHT22;1649;53.672;10.064;2022-11-14T03:15:04;7.40;99.90
3275;DHT22;1649;53.672;10.064;2022-11-14T03:17:31;7.40;99.90
3275;DHT22;1649;53.672;10.064;2022-11-14T03:19:57;7.40;99.90
3275;DHT22;1649;53.672;10.064;2022-11-14T03:22:23;7.40;99.90
3275;DHT22;1649;53.672;10.064;2022-11-14T03:24:49;7.40;99.90
3275;DHT22;1649;53.672;10.064;2022-11-14T03:27:14;7.40;99.90
3275;DHT22;1649;53.672;10.064;2022-11-14T03:29:40;7.40;99.90
3275;DHT22;1649;53.672;10.064;2022-11-14T03:32:05;7.30;99.90
3275;DHT22;1649;53.672;10.064;2022-11-14T03:34:31;7.40;99.90
3275;DHT22;1649;53.672;10.064;2022-11-14T03:36:56;7.40;99.90
3275;DHT22;1649;53.672;10.064;2022-11-14T03:39:22;7.30;99.90
3275;DHT22;1649;53.672;10.064;2022-11-14T03:41:47;7.40;99.90
3275;DHT22;1649;53.672;10.064;2022-11-14T03:44:13;7.40;99.90
3275;DHT22;1649;53.672;10.064;2022-11-14T03:46:38;7.40;99.90
3275;DHT22;1649;53.672;10.064;2022-11-14T03:49:04;7.40;99.90
3275;DHT22;1649;53.672;10.064;2022-11-14T03:51:30;7.30;99.90
3275;DHT22;1649;53.672;10.064;2022-11-14T03:53:55;7.40;99.90
3275;DHT22;1649;53.672;10.064;2022-11-14T03:56:21;7.40;99.90
3275;DHT22;1649;53.672;10.064;2022-11-14T03:58:46;7.30;99.90
3275;DHT22;1649;53.672;10.064;2022-11-14T04:01:12;7.40;99.90
3275;DHT22;1649;53.672;10.064;2022-11-14T04:03:37;7.40;99.90
3275;DHT22;1649;53.672;10.064;2022-11-14T04:06:03;7.40;99.90
3275;DHT22;1649;53.672;10.064;2022-11-14T04:08:29;7.40;99.90
3275;DHT22;1649;53.672;10.064;2022-11-14T04:10:55;7.50;99.90
3275;DHT22;1649;53.672;10.064;2022-11-14T04:13:20;7.40;99.90
3275;DHT22;1649;53.672;10.064;2022-11-14T04:15:45;7.40;99.90
3275;DHT22;1649;53.672;10.064;2022-11-14T04:18:11;7.30;99.90
3275;DHT22;1649;53.672;10.064;2022-11-14T04:20:37;7.40;99.90
3275;DHT22;1649;53.672;10.064;2022-11-14T04:23:02;7.40;99.90
3275;DHT22;1649;53.672;10.064;2022-11-14T04:25:28;7.30;99.90
3275;DHT22;1649;53.672;10.064;2022-11-14T04:27:53;7.30;99.90
3275;DHT22;1649;53.672;10.064;2022-11-14T04:30:19;7.30;99.90
3275;DHT22;1649;53.672;10.064;2022-11-14T04:32:45;7.30;99.90
3275;DHT22;1649;53.672;10.064;2022-11-14T04:35:12;7.30;99.90
3275;DHT22;1649;53.672;10.064;2022-11-14T04:37:38;7.40;99.90
3275;DHT22;1649;53.672;10.064;2022-11-14T04:40:04;7.40;99.90
3275;DHT22;1649;53.672;10.064;2022-11-14T04:42:30;7.40;99.90
3275;DHT22;1649;53.672;10.064;2022-11-14T04:44:55;7.30;99.90
3275;DHT22;1649;53.672;10.064;2022-11-14T04:47:21;7.40;99.90
3275;DHT22;1649;53.672;10.064;2022-11-14T04:49:46;7.30;99.90
3275;DHT22;1649;53.672;10.064;2022-11-14T04:52:12;7.30;99.90
3275;DHT22;1649;53.672;10.064;2022-11-14T04:54:37;7.40;99.90
3275;DHT22;1649;53.672;10.064;2022-11-14T04:57:03;7.30;99.90
3275;DHT22;1649;53.672;10.064;2022-11-14T04:59:28;7.30;99.90
3275;DHT22;1649;53.672;10.064;2022-11-14T05:01:54;7.30;99.90
3275;DHT22;1649;53.672;10.064;2022-11-14T05:04:19;7.30;99.90
3275;DHT22;1649;53.672;10.064;2022-11-14T05:06:45;7.30;99.90
3275;DHT22;1649;53.672;10.064;2022-11-14T05:09:10;7.30;99.90
3275;DHT22;1649;53.672;10.064;2022-11-14T05:11:36;7.30;99.90
3275;DHT22;1649;53.672;10.064;2022-11-14T05:14:01;7.30;99.90
3275;DHT22;1649;53.672;10.064;2022-11-14T05:16:27;7.30;99.90
3275;DHT22;1649;53.672;10.064;2022-11-14T05:18:53;7.20;99.90
3275;DHT22;1649;53.672;10.064;2022-11-14T05:21:23;7.30;99.90
3275;DHT22;1649;53.672;10.064;2022-11-14T05:23:49;7.30;99.90
3275;DHT22;1649;53.672;10.064;2022-11-14T05:26:16;7.30;99.90
3275;DHT22;1649;53.672;10.064;2022-11-14T05:28:42;7.20;99.90
3275;DHT22;1649;53.672;10.064;2022-11-14T05:31:10;7.20;99.90
3275;DHT22;1649;53.672;10.064;2022-11-14T05:33:37;7.20;99.90
3275;DHT22;1649;53.672;10.064;2022-11-14T05:36:08;7.20;99.90
3275;DHT22;1649;53.672;10.064;2022-11-14T05:38:34;7.20;99.90
3275;DHT22;1649;53.672;10.064;2022-11-14T05:41:11;7.20;99.90
3275;DHT22;1649;53.672;10.064;2022-11-14T05:43:37;7.10;99.90
3275;DHT22;1649;53.672;10.064;2022-11-14T05:46:05;7.10;99.90
3275;DHT22;1649;53.672;10.064;2022-11-14T05:48:31;7.10;99.90
3275;DHT22;1649;53.672;10.064;2022-11-14T05:50:59;7.10;99.90
3275;DHT22;1649;53.672;10.064;2022-11-14T05:53:25;7.10;99.90
3275;DHT22;1649;53.672;10.064;2022-11-14T05:55:51;7.10;99.90
3275;DHT22;1649;53.672;10.064;2022-11-14T05:58:17;7.00;99.90
3275;DHT22;1649;53.672;10.064;2022-11-14T06:00:43;7.10;99.90
3275;DHT22;1649;53.672;10.064;2022-11-14T06:03:08;7.10;99.90
3275;DHT22;1649;53.672;10.064;2022-11-14T06:05:35;7.20;99.90
3275;DHT22;1649;53.672;10.064;2022-11-14T06:08:01;7.10;99.90
3275;DHT22;1649;53.672;10.064;2022-11-14T06:10:27;7.10;99.90
3275;DHT22;1649;53.672;10.064;2022-11-14T06:12:52;7.00;99.90
3275;DHT22;1649;53.672;10.064;2022-11-14T06:15:18;7.10;99.90
3275;DHT22;1649;53.672;10.064;2022-11-14T06:17:43;7.10;99.90
3275;DHT22;1649;53.672;10.064;2022-11-14T06:20:09;7.10;99.90
3275;DHT22;1649;53.672;10.064;2022-11-14T06:22:40;7.10;99.90
3275;DHT22;1649;53.672;10.064;2022-11-14T06:25:06;7.10;99.90
3275;DHT22;1649;53.672;10.064;2022-11-14T06:27:31;7.10;99.90
3275;DHT22;1649;53.672;10.064;2022-11-14T06:29:57;7.10;99.90
3275;DHT22;1649;53.672;10.064;2022-11-14T06:32:22;7.10;99.90
3275;DHT22;1649;53.672;10.064;2022-11-14T06:34:48;7.00;99.90
3275;DHT22;1649;53.672;10.064;2022-11-14T06:37:13;7.10;99.90
3275;DHT22;1649;53.672;10.064;2022-11-14T06:39:39;7.00;99.90
3275;DHT22;1649;53.672;10.064;2022-11-14T06:42:04;7.00;99.90
3275;DHT22;1649;53.672;10.064;2022-11-14T06:44:30;7.00;99.90
3275;DHT22;1649;53.672;10.064;2022-11-14T06:46:55;6.90;99.90
3275;DHT22;1649;53.672;10.064;2022-11-14T06:49:21;6.90;99.90
3275;DHT22;1649;53.672;10.064;2022-11-14T06:51:49;6.90;99.90
3275;DHT22;1649;53.672;10.064;2022-11-14T06:54:14;6.90;99.90
3275;DHT22;1649;53.672;10.064;2022-11-14T06:56:40;6.80;99.90
3275;DHT22;1649;53.672;10.064;2022-11-14T06:59:05;6.90;99.90
3275;DHT22;1649;53.672;10.064;2022-11-14T07:01:31;6.80;99.90
3275;DHT22;1649;53.672;10.064;2022-11-14T07:03:56;6.80;99.90
3275;DHT22;1649;53.672;10.064;2022-11-14T07:06:28;6.80;99.90
3275;DHT22;1649;53.672;10.064;2022-11-14T07:08:54;6.90;99.90
3275;DHT22;1649;53.672;10.064;2022-11-14T07:11:23;6.80;99.90
3275;DHT22;1649;53.672;10.064;2022-11-14T07:13:51;6.80;99.90
3275;DHT22;1649;53.672;10.064;2022-11-14T07:16:17;6.90;99.90
3275;DHT22;1649;53.672;10.064;2022-11-14T07:18:43;6.80;99.90
3275;DHT22;1649;53.672;10.064;2022-11-14T07:21:08;6.80;99.90
3275;DHT22;1649;53.672;10.064;2022-11-14T07:23:34;6.70;99.90
3275;DHT22;1649;53.672;10.064;2022-11-14T07:26:04;6.80;99.90
3275;DHT22;1649;53.672;10.064;2022-11-14T07:28:35;6.80;99.90
3275;DHT22;1649;53.672;10.064;2022-11-14T07:31:14;6.80;99.90
3275;DHT22;1649;53.672;10.064;2022-11-14T07:33:41;6.80;99.90
3275;DHT22;1649;53.672;10.064;2022-11-14T07:36:07;6.80;99.90
3275;DHT22;1649;53.672;10.064;2022-11-14T07:38:34;6.80;99.90
3275;DHT22;1649;53.672;10.064;2022-11-14T07:41:12;6.70;99.90
3275;DHT22;1649;53.672;10.064;2022-11-14T07:43:38;6.70;99.90
3275;DHT22;1649;53.672;10.064;2022-11-14T07:46:12;6.80;99.90
3275;DHT22;1649;53.672;10.064;2022-11-14T07:48:38;6.80;99.90
3275;DHT22;1649;53.672;10.064;2022-11-14T07:51:06;6.80;99.90
3275;DHT22;1649;53.672;10.064;2022-11-14T07:53:32;6.80;99.90
3275;DHT22;1649;53.672;10.064;2022-11-14T07:56:03;6.80;99.90
3275;DHT22;1649;53.672;10.064;2022-11-14T07:58:29;6.80;99.90
3275;DHT22;1649;53.672;10.064;2022-11-14T08:00:54;6.80;99.90
3275;DHT22;1649;53.672;10.064;2022-11-14T08:03:20;6.80;99.90
3275;DHT22;1649;53.672;10.064;2022-11-14T08:05:45;6.80;99.90
3275;DHT22;1649;53.672;10.064;2022-11-14T08:08:11;6.80;99.90
3275;DHT22;1649;53.672;10.064;2022-11-14T08:10:36;6.80;99.90
3275;DHT22;1649;53.672;10.064;2022-11-14T08:13:04;6.80;99.90
3275;DHT22;1649;53.672;10.064;2022-11-14T08:15:30;6.80;99.90
3275;DHT22;1649;53.672;10.064;2022-11-14T08:17:57;6.80;99.90
3275;DHT22;1649;53.672;10.064;2022-11-14T08:20:23;6.70;99.90
3275;DHT22;1649;53.672;10.064;2022-11-14T08:22:49;6.70;99.90
3275;DHT22;1649;53.672;10.064;2022-11-14T08:25:15;6.70;99.90
3275;DHT22;1649;53.672;10.064;2022-11-14T08:27:40;6.70;99.90
3275;DHT22;1649;53.672;10.064;2022-11-14T08:30:06;6.70;99.90
3275;DHT22;1649;53.672;10.064;2022-11-14T08:32:32;6.70;99.90
3275;DHT22;1649;53.672;10.064;2022-11-14T08:34:57;6.70;99.90
3275;DHT22;1649;53.672;10.064;2022-11-14T08:37:23;6.70;99.90
3275;DHT22;1649;53.672;10.064;2022-11-14T08:39:48;6.70;99.90
3275;DHT22;1649;53.672;10.064;2022-11-14T08:42:14;6.70;99.90
3275;DHT22;1649;53.672;10.064;2022-11-14T08:44:39;6.70;99.90
3275;DHT22;1649;53.672;10.064;2022-11-14T08:47:05;6.70;99.90
3275;DHT22;1649;53.672;10.064;2022-11-14T08:49:30;6.70;99.90
3275;DHT22;1649;53.672;10.064;2022-11-14T08:51:56;6.70;99.90
3275;DHT22;1649;53.672;10.064;2022-11-14T08:54:21;6.70;99.90
3275;DHT22;1649;53.672;10.064;2022-11-14T08:56:47;6.70;99.90
3275;DHT22;1649;53.672;10.064;2022-11-14T08:59:13;6.80;99.90
3275;DHT22;1649;53.672;10.064;2022-11-14T09:01:38;6.80;99.90
3275;DHT22;1649;53.672;10.064;2022-11-14T09:04:04;6.70;99.90
3275;DHT22;1649;53.672;10.064;2022-11-14T09:06:29;6.80;99.90
3275;DHT22;1649;53.672;10.064;2022-11-14T09:08:55;6.80;99.90
3275;DHT22;1649;53.672;10.064;2022-11-14T09:11:20;6.80;99.90
3275;DHT22;1649;53.672;10.064;2022-11-14T09:13:46;6.80;99.90
3275;DHT22;1649;53.672;10.064;2022-11-14T09:16:12;6.80;99.90
3275;DHT22;1649;53.672;10.064;2022-11-14T09:18:37;6.80;99.90
3275;DHT22;1649;53.672;10.064;2022-11-14T09:21:05;6.80;99.90
3275;DHT22;1649;53.672;10.064;2022-11-14T09:23:32;6.90;99.90
3275;DHT22;1649;53.672;10.064;2022-11-14T09:25:58;6.90;99.90
3275;DHT22;1649;53.672;10.064;2022-11-14T09:28:27;6.90;99.90
3275;DHT22;1649;53.672;10.064;2022-11-14T09:30:52;6.90;99.90
3275;DHT22;1649;53.672;10.064;2022-11-14T09:33:18;6.90;99.90
3275;DHT22;1649;53.672;10.064;2022-11-14T09:35:43;6.90;99.90
3275;DHT22;1649;53.672;10.064;2022-11-14T09:38:10;6.90;99.90
3275;DHT22;1649;53.672;10.064;2022-11-14T09:43:33;6.90;99.90
3275;DHT22;1649;53.672;10.064;2022-11-14T09:46:03;6.90;99.90
3275;DHT22;1649;53.672;10.064;2022-11-14T09:48:35;6.90;99.90
3275;DHT22;1649;53.672;10.064;2022-11-14T09:51:07;7.00;99.90
3275;DHT22;1649;53.672;10.064;2022-11-14T09:53:41;7.00;99.90
3275;DHT22;1649;53.672;10.064;2022-11-14T09:56:12;7.10;99.90
3275;DHT22;1649;53.672;10.064;2022-11-14T09:58:40;7.20;99.90
3275;DHT22;1649;53.672;10.064;2022-11-14T10:01:35;7.20;99.90
3275;DHT22;1649;53.672;10.064;2022-11-14T10:12:54;7.30;99.90
3275;DHT22;1649;53.672;10.064;2022-11-14T10:20:57;7.40;99.90
3275;DHT22;1649;53.672;10.064;2022-11-14T10:26:25;7.50;99.90
3275;DHT22;1649;53.672;10.064;2022-11-14T10:29:28;7.50;99.90
3275;DHT22;1649;53.672;10.064;2022-11-14T10:35:00;7.50;99.90
3275;DHT22;1649;53.672;10.064;2022-11-14T10:37:32;7.60;99.90
3275;DHT22;1649;53.672;10.064;2022-11-14T10:40:24;7.60;99.90
3275;DHT22;1649;53.672;10.064;2022-11-14T10:42:55;7.60;99.90
3275;DHT22;1649;53.672;10.064;2022-11-14T10:45:36;7.70;99.90
3275;DHT22;1649;53.672;10.064;2022-11-14T10:48:35;7.60;99.90
3275;DHT22;1649;53.672;10.064;2022-11-14T10:56:49;7.70;99.90
3275;DHT22;1649;53.672;10.064;2022-11-14T10:59:15;7.90;99.90
3275;DHT22;1649;53.672;10.064;2022-11-14T11:01:43;7.90;99.90
3275;DHT22;1649;53.672;10.064;2022-11-14T11:04:17;8.10;99.90
3275;DHT22;1649;53.672;10.064;2022-11-14T11:06:47;8.00;99.90
3275;DHT22;1649;53.672;10.064;2022-11-14T11:09:19;8.00;99.90
3275;DHT22;1649;53.672;10.064;2022-11-14T11:12:05;8.20;99.90
3275;DHT22;1649;53.672;10.064;2022-11-14T11:14:31;8.20;99.90
3275;DHT22;1649;53.672;10.064;2022-11-14T11:19:39;8.30;99.90
3275;DHT22;1649;53.672;10.064;2022-11-14T11:24:50;8.40;99.90
3275;DHT22;1649;53.672;10.064;2022-11-14T11:27:28;8.40;99.90
3275;DHT22;1649;53.672;10.064;2022-11-14T11:32:29;8.50;99.90
3275;DHT22;1649;53.672;10.064;2022-11-14T11:34:56;8.60;99.90
3275;DHT22;1649;53.672;10.064;2022-11-14T11:37:37;8.60;99.90
3275;DHT22;1649;53.672;10.064;2022-11-14T11:40:06;8.70;99.90
3275;DHT22;1649;53.672;10.064;2022-11-14T11:42:45;8.80;99.90
3275;DHT22;1649;53.672;10.064;2022-11-14T11:45:16;8.90;99.90
3275;DHT22;1649;53.672;10.064;2022-11-14T11:47:54;8.90;99.90
3275;DHT22;1649;53.672;10.064;2022-11-14T11:50:21;9.00;99.90
3275;DHT22;1649;53.672;10.064;2022-11-14T11:53:10;9.10;99.90
3275;DHT22;1649;53.672;10.064;2022-11-14T11:55:45;9.20;99.90
3275;DHT22;1649;53.672;10.064;2022-11-14T11:58:18;9.30;99.90
3275;DHT22;1649;53.672;10.064;2022-11-14T12:00:45;9.30;99.90
3275;DHT22;1649;53.672;10.064;2022-11-14T12:03:12;9.20;99.90
3275;DHT22;1649;53.672;10.064;2022-11-14T12:08:34;9.30;99.90
3275;DHT22;1649;53.672;10.064;2022-11-14T12:11:02;9.30;99.90
3275;DHT22;1649;53.672;10.064;2022-11-14T12:32:31;9.60;99.90
3275;DHT22;1649;53.672;10.064;2022-11-14T12:34:58;9.60;99.90
3275;DHT22;1649;53.672;10.064;2022-11-14T12:37:43;9.60;99.90
3275;DHT22;1649;53.672;10.064;2022-11-14T12:40:38;9.70;99.90
3275;DHT22;1649;53.672;10.064;2022-11-14T12:43:26;9.70;99.90
3275;DHT22;1649;53.672;10.064;2022-11-14T12:45:56;9.70;99.90
3275;DHT22;1649;53.672;10.064;2022-11-14T12:50:53;9.70;99.90
3275;DHT22;1649;53.672;10.064;2022-11-14T12:59:11;9.60;99.90
3275;DHT22;1649;53.672;10.064;2022-11-14T13:09:38;9.70;99.90
3275;DHT22;1649;53.672;10.064;2022-11-14T13:15:27;9.70;99.90
3275;DHT22;1649;53.672;10.064;2022-11-14T13:18:25;9.70;99.90
3275;DHT22;1649;53.672;10.064;2022-11-14T13:21:20;9.80;99.90
3275;DHT22;1649;53.672;10.064;2022-11-14T13:24:06;9.70;99.90
3275;DHT22;1649;53.672;10.064;2022-11-14T13:28:57;9.70;99.90
3275;DHT22;1649;53.672;10.064;2022-11-14T13:31:25;9.70;99.90
3275;DHT22;1649;53.672;10.064;2022-11-14T13:37:09;9.70;99.90
3275;DHT22;1649;53.672;10.064;2022-11-14T13:39:43;9.70;99.90
3275;DHT22;1649;53.672;10.064;2022-11-14T13:45:13;9.70;99.90
3275;DHT22;1649;53.672;10.064;2022-11-14T13:47:50;9.70;99.90
3275;DHT22;1649;53.672;10.064;2022-11-14T13:50:30;9.70;99.90
3275;DHT22;1649;53.672;10.064;2022-11-14T13:52:56;9.70;99.90
3275;DHT22;1649;53.672;10.064;2022-11-14T14:01:07;9.70;99.90
3275;DHT22;1649;53.672;10.064;2022-11-14T14:04:04;9.70;99.90
3275;DHT22;1649;53.672;10.064;2022-11-14T14:06:36;9.70;99.90
3275;DHT22;1649;53.672;10.064;2022-11-14T14:09:26;9.70;99.90
3275;DHT22;1649;53.672;10.064;2022-11-14T14:17:20;9.60;99.90
3275;DHT22;1649;53.672;10.064;2022-11-14T14:20:02;9.50;99.90
3275;DHT22;1649;53.672;10.064;2022-11-14T14:25:18;9.50;99.90
3275;DHT22;1649;53.672;10.064;2022-11-14T14:27:56;9.40;99.90
3275;DHT22;1649;53.672;10.064;2022-11-14T14:30:24;9.40;99.90
3275;DHT22;1649;53.672;10.064;2022-11-14T14:33:11;9.30;99.90
3275;DHT22;1649;53.672;10.064;2022-11-14T14:35:38;9.30;99.90
3275;DHT22;1649;53.672;10.064;2022-11-14T14:38:12;9.20;99.90
3275;DHT22;1649;53.672;10.064;2022-11-14T14:40:39;9.10;99.90
3275;DHT22;1649;53.672;10.064;2022-11-14T14:43:06;9.10;99.90
3275;DHT22;1649;53.672;10.064;2022-11-14T14:45:47;9.00;99.90
3275;DHT22;1649;53.672;10.064;2022-11-14T14:48:21;8.90;99.90
3275;DHT22;1649;53.672;10.064;2022-11-14T14:50:50;8.90;99.90
3275;DHT22;1649;53.672;10.064;2022-11-14T14:53:24;8.80;99.90
3275;DHT22;1649;53.672;10.064;2022-11-14T14:55:57;8.80;99.90
3275;DHT22;1649;53.672;10.064;2022-11-14T14:58:24;8.70;99.90
3275;DHT22;1649;53.672;10.064;2022-11-14T15:01:08;8.60;99.90
3275;DHT22;1649;53.672;10.064;2022-11-14T15:03:39;8.60;99.90
3275;DHT22;1649;53.672;10.064;2022-11-14T15:06:18;8.50;99.90
3275;DHT22;1649;53.672;10.064;2022-11-14T15:08:45;8.50;99.90
3275;DHT22;1649;53.672;10.064;2022-11-14T15:11:13;8.40;99.90
3275;DHT22;1649;53.672;10.064;2022-11-14T15:13:40;8.40;99.90
3275;DHT22;1649;53.672;10.064;2022-11-14T15:16:07;8.30;99.90
3275;DHT22;1649;53.672;10.064;2022-11-14T15:18:33;8.30;99.90
3275;DHT22;1649;53.672;10.064;2022-11-14T15:21:06;8.20;99.90
3275;DHT22;1649;53.672;10.064;2022-11-14T15:23:32;8.10;99.90
3275;DHT22;1649;53.672;10.064;2022-11-14T15:26:01;8.10;99.90
3275;DHT22;1649;53.672;10.064;2022-11-14T15:28:28;8.00;99.90
3275;DHT22;1649;53.672;10.064;2022-11-14T15:31:00;8.00;99.90
3275;DHT22;1649;53.672;10.064;2022-11-14T15:33:32;7.90;99.90
3275;DHT22;1649;53.672;10.064;2022-11-14T15:36:24;8.00;99.90
3275;DHT22;1649;53.672;10.064;2022-11-14T15:39:03;7.90;99.90
3275;DHT22;1649;53.672;10.064;2022-11-14T15:41:30;7.80;99.90
3275;DHT22;1649;53.672;10.064;2022-11-14T15:43:57;7.80;99.90
3275;DHT22;1649;53.672;10.064;2022-11-14T15:46:45;7.80;99.90
3275;DHT22;1649;53.672;10.064;2022-11-14T15:49:23;7.80;99.90
3275;DHT22;1649;53.672;10.064;2022-11-14T15:51:56;7.70;99.90
3275;DHT22;1649;53.672;10.064;2022-11-14T15:54:32;7.70;99.90
3275;DHT22;1649;53.672;10.064;2022-11-14T15:57:00;7.70;99.90
3275;DHT22;1649;53.672;10.064;2022-11-14T15:59:28;7.70;99.90
3275;DHT22;1649;53.672;10.064;2022-11-14T16:04:42;7.70;99.90
3275;DHT22;1649;53.672;10.064;2022-11-14T16:07:11;7.70;99.90
3275;DHT22;1649;53.672;10.064;2022-11-14T16:09:37;7.70;99.90
3275;DHT22;1649;53.672;10.064;2022-11-14T16:12:03;7.60;99.90
3275;DHT22;1649;53.672;10.064;2022-11-14T16:14:29;7.60;99.90
3275;DHT22;1649;53.672;10.064;2022-11-14T16:16:54;7.50;99.90
3275;DHT22;1649;53.672;10.064;2022-11-14T16:19:20;7.50;99.90
3275;DHT22;1649;53.672;10.064;2022-11-14T16:21:46;7.50;99.90
3275;DHT22;1649;53.672;10.064;2022-11-14T16:24:18;7.50;99.90
3275;DHT22;1649;53.672;10.064;2022-11-14T16:26:44;7.50;99.90
3275;DHT22;1649;53.672;10.064;2022-11-14T16:29:10;7.40;99.90
3275;DHT22;1649;53.672;10.064;2022-11-14T16:31:36;7.40;99.90
3275;DHT22;1649;53.672;10.064;2022-11-14T16:34:02;7.40;99.90
3275;DHT22;1649;53.672;10.064;2022-11-14T16:36:28;7.40;99.90
3275;DHT22;1649;53.672;10.064;2022-11-14T16:38:58;7.40;99.90
3275;DHT22;1649;53.672;10.064;2022-11-14T16:41:24;7.40;99.90
3275;DHT22;1649;53.672;10.064;2022-11-14T16:43:53;7.40;99.90
3275;DHT22;1649;53.672;10.064;2022-11-14T16:46:19;7.40;99.90
3275;DHT22;1649;53.672;10.064;2022-11-14T16:48:44;7.30;99.90
3275;DHT22;1649;53.672;10.064;2022-11-14T16:51:10;7.30;99.90
3275;DHT22;1649;53.672;10.064;2022-11-14T16:53:36;7.30;99.90
3275;DHT22;1649;53.672;10.064;2022-11-14T16:56:01;7.30;99.90
3275;DHT22;1649;53.672;10.064;2022-11-14T16:58:27;7.20;99.90
3275;DHT22;1649;53.672;10.064;2022-11-14T17:00:52;7.30;99.90
3275;DHT22;1649;53.672;10.064;2022-11-14T17:03:18;7.20;99.90
3275;DHT22;1649;53.672;10.064;2022-11-14T17:05:48;7.20;99.90
3275;DHT22;1649;53.672;10.064;2022-11-14T17:08:14;7.20;99.90
3275;DHT22;1649;53.672;10.064;2022-11-14T17:10:41;7.20;99.90
3275;DHT22;1649;53.672;10.064;2022-11-14T17:13:07;7.20;99.90
3275;DHT22;1649;53.672;10.064;2022-11-14T17:15:32;7.10;99.90
3275;DHT22;1649;53.672;10.064;2022-11-14T17:17:58;7.20;99.90
3275;DHT22;1649;53.672;10.064;2022-11-14T17:20:23;7.20;99.90
3275;DHT22;1649;53.672;10.064;2022-11-14T17:22:49;7.10;99.90
3275;DHT22;1649;53.672;10.064;2022-11-14T17:25:14;7.10;99.90
3275;DHT22;1649;53.672;10.064;2022-11-14T17:27:40;7.10;99.90
3275;DHT22;1649;53.672;10.064;2022-11-14T17:30:07;7.10;99.90
3275;DHT22;1649;53.672;10.064;2022-11-14T17:32:33;7.10;99.90
3275;DHT22;1649;53.672;10.064;2022-11-14T17:34:59;7.00;99.90
3275;DHT22;1649;53.672;10.064;2022-11-14T17:37:24;7.10;99.90
3275;DHT22;1649;53.672;10.064;2022-11-14T17:39:50;7.00;99.90
3275;DHT22;1649;53.672;10.064;2022-11-14T17:42:15;7.00;99.90
3275;DHT22;1649;53.672;10.064;2022-11-14T17:44:41;7.00;99.90
3275;DHT22;1649;53.672;10.064;2022-11-14T17:47:06;7.00;99.90
3275;DHT22;1649;53.672;10.064;2022-11-14T17:49:32;7.00;99.90
3275;DHT22;1649;53.672;10.064;2022-11-14T17:51:57;7.00;99.90
3275;DHT22;1649;53.672;10.064;2022-11-14T17:54:23;7.00;99.90
3275;DHT22;1649;53.672;10.064;2022-11-14T17:56:48;7.00;99.90